x

Grays Reef - 40 Nm Southeast Of Savannah, Ga (41008) Wave Buoy

8:50pm - Wed 16th Apr 2014 All times are EDT. -4 hours from GMT.

  • Sig Wave height 5.9ft
  • Swell Direction
  • Peak Period 7s
  • Average Period 5s
  • Wind
    25mph, 29mph gusts
  • Sea Temp 64°f
  • Air Temp 57°f
  • Sea Pressure 1024.4mb
  • Grays Reef - 40 Nm Southeast Of Savannah, Ga
  • Grays Reef - 40 Nm Southeast Of Savannah, Ga

More Historic Weather Station data

Upgrade to MSW Pro to gain access to the past 30 days of data for over 8000 Wavebouys and Weather Stations around the globe.

Join Pro

Comparision Forecast

View Surf forecast
   
Wed 04/16 8:50pm 6ft 7s 5s 25 29 mph 1024.4mb 64f 57f
7:50pm 6ft 6s 5s 27 31 mph 1023.9mb 64f 56f
6:50pm 6ft 7s 5s 27 34 mph 1023.9mb 64f 56f
5:50pm 6.5ft 7s 5s 27 31 mph 1024.2mb 63f 55f
4:50pm 6.5ft 8s 5s 25 31 mph 1024.2mb 63f 55f
3:50pm 6ft 8s 5s 22 27 mph 1024.3mb 63f 56f
2:50pm 6ft 5s 5s 25 31 mph 1024.1mb 63f 55f
1:50pm 6.5ft 8s 5s 25 29 mph 1024.6mb 63f 54f
12:50pm 6ft 7s 5s 22 29 mph 1024.6mb 63f 53f
11:50am 7ft 7s 5s 22 27 mph 1024.5mb 63f 53f
10:50am 7ft 7s 5s 25 31 mph 1023.9mb 63f 52f
9:50am 7.5ft 7s 5s 27 31 mph 1023mb 63f 51f
8:50am 7.5ft 6s 5s 29 34 mph 1021.8mb 63f 51f
7:50am 7ft 6s 5s 27 34 mph 1020.9mb 63f 52f
6:50am 5.5ft 5s 4s 27 31 mph 1019.7mb 63f 53f
5:50am 5ft 5s 4s 27 34 mph 1018.2mb 64f 56f
4:50am 4.5ft 5s 4s 22 29 mph 1017.8mb 64f 54f
3:50am 4.5ft 5s 4s 25 29 mph 1016.9mb 64f 53f
2:50am 4.5ft 5s 4s 25 31 mph 1016.5mb 64f 53f
1:50am 4.5ft 4s 4s 25 29 mph 1016.3mb 65f 54f
12:50am 4.5ft 4s 4s 22 27 mph 1015.4mb 65f 55f
Tue 04/15 11:50pm 4.5ft 4s 4s 27 31 mph 1014.6mb 65f 55f
10:50pm 5ft 5s 4s 25 31 mph 1013.5mb 66f 56f
9:50pm 5.5ft 5s 4s 31 40 mph 1012.2mb 66f 58f
8:50pm 5.5ft 5s 5s 27 34 mph 1010.6mb 67f 60f
7:50pm 4.5ft 8s 5s 29 36 mph 1008.3mb 67f 65f
6:50pm 4ft 8s 5s 22 27 mph 1006.9mb 67f 66f
5:50pm 4.5ft 8s 5s 13 20 mph 1005.8mb 67f 69f
4:50pm 4ft 8s 6s 25 38 mph 1005.1mb 67f 69f
3:50pm 3.5ft 8s 5s 7 11 mph 1006.6mb 67f 68f
2:50pm 4ft 8s 6s 7 11 mph 1007.7mb 67f 68f
1:50pm 4ft 8s 5s 11 13 mph 1009.2mb 67f 67f
12:50pm 3.5ft 8s 5s 11 13 mph 1009.6mb 67f 67f
11:50am 3.5ft 8s 5s 18 20 mph 1010.7mb 67f 68f
10:50am 4ft 9s 6s 4 7 mph 1010.9mb 68f 68f
9:50am 3.5ft 8s 6s 13 16 mph 1010.2mb 68f 69f
8:50am 4ft 8s 6s 9 11 mph 1009.7mb 68f 69f
7:50am 4.5ft 8s 6s 11 13 mph 1009.6mb 68f 69f
6:50am 4ft 6s 5s 11 13 mph 1008.9mb 68f 69f
5:50am 4ft 8s 5s 9 11 mph 1009.1mb 68f 69f
4:50am 3.5ft 8s 5s 11 13 mph 1009.7mb 68f 69f
3:50am 3.5ft 8s 5s 13
mph
1010.1mb 68f 70f
2:50am 3.5ft 8s 5s 13 16 mph 1010.5mb 69f 69f
1:50am 3.5ft 9s 5s 13 16 mph 1011.1mb 67f 69f
12:50am 3ft 8s 5s 18 22 mph 1010.8mb 67f 70f
Mon 04/14 11:50pm 3ft 9s 6s 11 13 mph 1011mb 68f 70f
10:50pm 3.5ft 9s 6s 11 13 mph 1011.8mb 68f 70f
9:50pm 3.5ft 8s 6s 11 13 mph 1011.9mb 68f 70f
8:50pm 4.5ft 8s 6s 11
mph
1011.5mb 68f 70f
7:50pm 4.5ft 8s 6s 11 13 mph 1011.6mb 68f 70f
6:50pm 4.5ft 8s 6s 11 13 mph 1011.8mb 69f 70f
5:50pm 5ft 7s 6s 11 13 mph 1012.5mb 69f 71f
4:50pm 4.5ft 8s 6s 9 11 mph 1013.1mb 71f 71f
3:50pm 4.5ft 8s 6s 9 11 mph 1014.1mb 70f 71f
2:50pm 4ft 8s 6s 7 9 mph 1015.1mb 70f 71f
1:50pm 3.5ft 8s 6s 4
mph
1016.2mb 69f 70f
12:50pm 3.5ft 7s 6s 4 7 mph 1016.4mb 69f 69f
11:50am 3.5ft 8s 6s 2 4 mph 1017.1mb 68f 69f
10:50am 3.5ft 8s 6s 2 4 mph 1016.9mb 67f 68f
9:50am 4ft 8s 6s 4
mph
1016.5mb 66f 67f
7:50am 4ft 8s 6s 7
mph
1016mb 66f 67f
6:50am 4.5ft 6s 5s 7 9 mph 1015.7mb 66f 67f
5:50am 4.5ft 7s 5s 4 7 mph 1015.8mb 66f 67f
4:50am 4.5ft 7s 5s 4
mph
1016.4mb 67f 67f
3:50am 4ft 7s 5s 7
mph
1016.7mb 67f 67f
2:50am 3.5ft 7s 5s 4 7 mph 1017.3mb 67f 68f
1:50am 2.5ft 8s 6s 7 9 mph 1017.9mb 67f 69f
12:50am 2.5ft 7s 6s 11
mph
1018.4mb 68f 69f
Sun 04/13 11:50pm 2.5ft 8s 6s 9 11 mph 1018.9mb 68f 69f
10:50pm 2.5ft 8s 6s 4
mph
1019.4mb 68f 68f
9:50pm 2.5ft 8s 5s 4 7 mph 1019.3mb 68f 69f
8:50pm 2.5ft 7s 5s 4 7 mph 1018.9mb 68f 69f
7:50pm 2.5ft 8s 5s 4 7 mph 1019mb 68f 69f
6:50pm 2.5ft 8s 5s 7 9 mph 1019.2mb 68f 70f
5:50pm 2.5ft 8s 5s 9
mph
1019.5mb 69f 70f
4:50pm 2.5ft 8s 5s 9
mph
1019.9mb 69f 70f
3:50pm 2.5ft 7s 5s 9
mph
1020.4mb 71f 71f
2:50pm 2.5ft 8s 5s 7
mph
1021.4mb 71f 71f
1:50pm 2.5ft 8s 6s 7
mph
1021.7mb 70f 70f
12:50pm 2.5ft 8s 6s 4 7 mph 1022.3mb 70f 69f
11:50am 2.5ft 8s 6s 4
mph
1022.8mb 68f 69f
10:50am 2.5ft 8s 6s 2 4 mph 1022.9mb 67f 68f
9:50am 2.5ft 8s 6s 2
mph
1022.4mb 66f 68f
8:50am 2.5ft 8s 5s 4
mph
1022.3mb 65f 67f
7:50am 2.5ft 8s 5s 4 7 mph 1021.9mb 65f 67f
6:50am 2.5ft 7s 5s 4
mph
1021.5mb 65f 66f
5:50am 2.5ft 7s 6s 4 7 mph 1021.2mb 65f 66f
4:50am 2.5ft 7s 6s 7
mph
1020.9mb 66f 66f
3:50am 2ft 7s 6s 7
mph
1021.1mb 66f 67f
2:50am 2ft 7s 6s 7 9 mph 1021.3mb 66f 67f